sensor_id;sensor_type;location;lat;lon;timestamp;temperature;humidity
15231;DHT22;32569;51.762;8.564;2023-01-19T00:00:49;0.00;99.90
15231;DHT22;32569;51.762;8.564;2023-01-19T00:03:16;0.00;99.90
15231;DHT22;32569;51.762;8.564;2023-01-19T00:05:43;0.00;99.90
15231;DHT22;32569;51.762;8.564;2023-01-19T00:08:12;0.00;99.90
15231;DHT22;32569;51.762;8.564;2023-01-19T00:10:43;0.10;99.90
15231;DHT22;32569;51.762;8.564;2023-01-19T00:13:12;0.10;99.90
15231;DHT22;32569;51.762;8.564;2023-01-19T00:15:39;0.10;99.90
15231;DHT22;32569;51.762;8.564;2023-01-19T00:18:06;0.10;99.90
15231;DHT22;32569;51.762;8.564;2023-01-19T00:20:32;0.10;99.90
15231;DHT22;32569;51.762;8.564;2023-01-19T00:23:01;0.20;99.90
15231;DHT22;32569;51.762;8.564;2023-01-19T00:25:30;0.10;99.90
15231;DHT22;32569;51.762;8.564;2023-01-19T00:27:57;0.20;99.90
15231;DHT22;32569;51.762;8.564;2023-01-19T00:30:24;0.20;99.90
15231;DHT22;32569;51.762;8.564;2023-01-19T00:32:50;0.20;99.90
15231;DHT22;32569;51.762;8.564;2023-01-19T00:35:17;0.20;99.90
15231;DHT22;32569;51.762;8.564;2023-01-19T00:37:44;0.20;99.90
15231;DHT22;32569;51.762;8.564;2023-01-19T00:40:13;0.20;99.90
15231;DHT22;32569;51.762;8.564;2023-01-19T00:42:41;0.20;99.90
15231;DHT22;32569;51.762;8.564;2023-01-19T00:45:11;0.10;99.90
15231;DHT22;32569;51.762;8.564;2023-01-19T00:47:38;0.20;99.90
15231;DHT22;32569;51.762;8.564;2023-01-19T00:50:06;0.20;99.90
15231;DHT22;32569;51.762;8.564;2023-01-19T00:52:33;0.30;99.90
15231;DHT22;32569;51.762;8.564;2023-01-19T00:54:59;0.20;99.90
15231;DHT22;32569;51.762;8.564;2023-01-19T00:57:26;0.30;99.90
15231;DHT22;32569;51.762;8.564;2023-01-19T00:59:55;0.20;99.90
15231;DHT22;32569;51.762;8.564;2023-01-19T01:02:22;0.20;99.90
15231;DHT22;32569;51.762;8.564;2023-01-19T01:04:48;0.20;99.90
15231;DHT22;32569;51.762;8.564;2023-01-19T01:07:19;0.10;99.90
15231;DHT22;32569;51.762;8.564;2023-01-19T01:09:49;0.10;99.90
15231;DHT22;32569;51.762;8.564;2023-01-19T01:12:16;0.00;99.90
15231;DHT22;32569;51.762;8.564;2023-01-19T01:14:42;0.00;99.90
15231;DHT22;32569;51.762;8.564;2023-01-19T01:17:13;-0.10;99.90
15231;DHT22;32569;51.762;8.564;2023-01-19T01:19:39;-0.10;99.90
15231;DHT22;32569;51.762;8.564;2023-01-19T01:22:07;-0.10;99.90
15231;DHT22;32569;51.762;8.564;2023-01-19T01:24:37;-0.10;99.90
15231;DHT22;32569;51.762;8.564;2023-01-19T01:27:03;-0.20;99.90
15231;DHT22;32569;51.762;8.564;2023-01-19T01:29:30;-0.10;99.90
15231;DHT22;32569;51.762;8.564;2023-01-19T01:31:59;-0.10;99.90
15231;DHT22;32569;51.762;8.564;2023-01-19T01:34:28;-0.10;99.90
15231;DHT22;32569;51.762;8.564;2023-01-19T01:36:54;0.00;99.90
15231;DHT22;32569;51.762;8.564;2023-01-19T01:39:21;0.00;99.90
15231;DHT22;32569;51.762;8.564;2023-01-19T01:41:48;-0.10;99.90
15231;DHT22;32569;51.762;8.564;2023-01-19T01:44:43;-0.10;99.90
15231;DHT22;32569;51.762;8.564;2023-01-19T01:47:15;-0.20;99.90
15231;DHT22;32569;51.762;8.564;2023-01-19T01:49:44;-0.10;99.90
15231;DHT22;32569;51.762;8.564;2023-01-19T01:52:17;-0.10;99.90
15231;DHT22;32569;51.762;8.564;2023-01-19T01:54:44;-0.10;99.90
15231;DHT22;32569;51.762;8.564;2023-01-19T01:57:11;-0.10;99.90
15231;DHT22;32569;51.762;8.564;2023-01-19T01:59:40;0.00;99.90
15231;DHT22;32569;51.762;8.564;2023-01-19T02:02:10;0.10;99.90
15231;DHT22;32569;51.762;8.564;2023-01-19T02:05:02;0.30;99.90
15231;DHT22;32569;51.762;8.564;2023-01-19T02:07:35;0.40;99.90
15231;DHT22;32569;51.762;8.564;2023-01-19T02:10:21;0.40;99.90
15231;DHT22;32569;51.762;8.564;2023-01-19T02:13:06;0.40;99.90
15231;DHT22;32569;51.762;8.564;2023-01-19T02:15:46;0.50;99.90
15231;DHT22;32569;51.762;8.564;2023-01-19T02:18:14;0.60;99.90
15231;DHT22;32569;51.762;8.564;2023-01-19T02:20:49;0.60;99.90
15231;DHT22;32569;51.762;8.564;2023-01-19T02:23:26;0.70;99.90
15231;DHT22;32569;51.762;8.564;2023-01-19T02:25:57;0.70;99.90
15231;DHT22;32569;51.762;8.564;2023-01-19T02:28:26;0.80;99.90
15231;DHT22;32569;51.762;8.564;2023-01-19T02:30:53;0.90;99.90
15231;DHT22;32569;51.762;8.564;2023-01-19T02:33:20;0.90;99.90
15231;DHT22;32569;51.762;8.564;2023-01-19T02:35:48;0.90;99.90
15231;DHT22;32569;51.762;8.564;2023-01-19T02:38:19;0.90;99.90
15231;DHT22;32569;51.762;8.564;2023-01-19T02:40:48;0.90;99.90
15231;DHT22;32569;51.762;8.564;2023-01-19T02:43:16;0.90;99.90
15231;DHT22;32569;51.762;8.564;2023-01-19T02:45:45;0.90;99.90
15231;DHT22;32569;51.762;8.564;2023-01-19T02:48:13;0.90;99.90
15231;DHT22;32569;51.762;8.564;2023-01-19T02:50:42;0.90;99.90
15231;DHT22;32569;51.762;8.564;2023-01-19T02:53:20;1.00;99.90
15231;DHT22;32569;51.762;8.564;2023-01-19T02:55:55;1.00;99.90
15231;DHT22;32569;51.762;8.564;2023-01-19T02:58:31;0.90;99.90
15231;DHT22;32569;51.762;8.564;2023-01-19T03:01:05;1.00;99.90
15231;DHT22;32569;51.762;8.564;2023-01-19T03:03:40;1.10;99.90
15231;DHT22;32569;51.762;8.564;2023-01-19T03:06:17;1.10;99.90
15231;DHT22;32569;51.762;8.564;2023-01-19T03:08:51;1.10;99.90
15231;DHT22;32569;51.762;8.564;2023-01-19T03:11:23;1.10;99.90
15231;DHT22;32569;51.762;8.564;2023-01-19T03:13:52;1.20;99.90
15231;DHT22;32569;51.762;8.564;2023-01-19T03:16:20;1.20;99.90
15231;DHT22;32569;51.762;8.564;2023-01-19T03:18:53;1.30;99.90
15231;DHT22;32569;51.762;8.564;2023-01-19T03:21:23;1.30;99.90
15231;DHT22;32569;51.762;8.564;2023-01-19T03:23:52;1.30;99.90
15231;DHT22;32569;51.762;8.564;2023-01-19T03:26:26;1.30;99.90
15231;DHT22;32569;51.762;8.564;2023-01-19T03:28:55;1.30;99.90
15231;DHT22;32569;51.762;8.564;2023-01-19T03:31:23;1.30;99.90
15231;DHT22;32569;51.762;8.564;2023-01-19T03:33:55;1.20;99.90
15231;DHT22;32569;51.762;8.564;2023-01-19T03:36:26;1.30;99.90
15231;DHT22;32569;51.762;8.564;2023-01-19T03:38:57;1.30;99.90
15231;DHT22;32569;51.762;8.564;2023-01-19T03:41:26;1.30;99.90
15231;DHT22;32569;51.762;8.564;2023-01-19T03:43:54;1.20;99.90
15231;DHT22;32569;51.762;8.564;2023-01-19T03:46:22;1.30;99.90
15231;DHT22;32569;51.762;8.564;2023-01-19T03:48:51;1.30;99.90
15231;DHT22;32569;51.762;8.564;2023-01-19T03:51:18;1.30;99.90
15231;DHT22;32569;51.762;8.564;2023-01-19T03:53:45;1.30;99.90
15231;DHT22;32569;51.762;8.564;2023-01-19T03:56:16;1.30;99.90
15231;DHT22;32569;51.762;8.564;2023-01-19T03:58:45;1.30;99.90
15231;DHT22;32569;51.762;8.564;2023-01-19T04:01:12;1.30;99.90
15231;DHT22;32569;51.762;8.564;2023-01-19T04:03:39;1.30;99.90
15231;DHT22;32569;51.762;8.564;2023-01-19T04:06:06;1.30;99.90
15231;DHT22;32569;51.762;8.564;2023-01-19T04:08:32;1.30;99.90
15231;DHT22;32569;51.762;8.564;2023-01-19T04:10:59;1.20;99.90
15231;DHT22;32569;51.762;8.564;2023-01-19T04:13:26;1.30;99.90
15231;DHT22;32569;51.762;8.564;2023-01-19T04:15:58;1.20;99.90
15231;DHT22;32569;51.762;8.564;2023-01-19T04:18:25;1.20;99.90
15231;DHT22;32569;51.762;8.564;2023-01-19T04:20:58;1.20;99.90
15231;DHT22;32569;51.762;8.564;2023-01-19T04:23:25;1.20;99.90
15231;DHT22;32569;51.762;8.564;2023-01-19T04:25:58;1.20;99.90
15231;DHT22;32569;51.762;8.564;2023-01-19T04:28:25;1.20;99.90
15231;DHT22;32569;51.762;8.564;2023-01-19T04:30:52;1.20;99.90
15231;DHT22;32569;51.762;8.564;2023-01-19T04:33:21;1.20;99.90
15231;DHT22;32569;51.762;8.564;2023-01-19T04:35:49;1.20;99.90
15231;DHT22;32569;51.762;8.564;2023-01-19T04:38:20;1.20;99.90
15231;DHT22;32569;51.762;8.564;2023-01-19T04:40:47;1.20;99.90
15231;DHT22;32569;51.762;8.564;2023-01-19T04:43:15;1.20;99.90
15231;DHT22;32569;51.762;8.564;2023-01-19T04:45:42;1.20;99.90
15231;DHT22;32569;51.762;8.564;2023-01-19T04:48:13;1.20;99.90
15231;DHT22;32569;51.762;8.564;2023-01-19T04:50:41;1.20;99.90
15231;DHT22;32569;51.762;8.564;2023-01-19T04:53:08;1.20;99.90
15231;DHT22;32569;51.762;8.564;2023-01-19T04:55:36;1.20;99.90
15231;DHT22;32569;51.762;8.564;2023-01-19T04:58:03;1.20;99.90
15231;DHT22;32569;51.762;8.564;2023-01-19T05:00:30;1.20;99.90
15231;DHT22;32569;51.762;8.564;2023-01-19T05:02:59;1.20;99.90
15231;DHT22;32569;51.762;8.564;2023-01-19T05:05:26;1.30;99.90
15231;DHT22;32569;51.762;8.564;2023-01-19T05:07:55;1.30;99.90
15231;DHT22;32569;51.762;8.564;2023-01-19T05:10:21;1.30;99.90
15231;DHT22;32569;51.762;8.564;2023-01-19T05:12:48;1.30;99.90
15231;DHT22;32569;51.762;8.564;2023-01-19T05:15:15;1.30;99.90
15231;DHT22;32569;51.762;8.564;2023-01-19T05:17:42;1.30;99.90
15231;DHT22;32569;51.762;8.564;2023-01-19T05:20:10;1.30;99.90
15231;DHT22;32569;51.762;8.564;2023-01-19T05:22:36;1.40;99.90
15231;DHT22;32569;51.762;8.564;2023-01-19T05:25:06;1.40;99.90
15231;DHT22;32569;51.762;8.564;2023-01-19T05:27:34;1.40;99.90
15231;DHT22;32569;51.762;8.564;2023-01-19T05:30:00;1.40;99.90
15231;DHT22;32569;51.762;8.564;2023-01-19T05:32:29;1.40;99.90
15231;DHT22;32569;51.762;8.564;2023-01-19T05:34:55;1.40;99.90
15231;DHT22;32569;51.762;8.564;2023-01-19T05:37:22;1.40;99.90
15231;DHT22;32569;51.762;8.564;2023-01-19T05:39:54;1.40;99.90
15231;DHT22;32569;51.762;8.564;2023-01-19T05:42:43;1.40;99.90
15231;DHT22;32569;51.762;8.564;2023-01-19T05:45:10;1.40;99.90
15231;DHT22;32569;51.762;8.564;2023-01-19T05:47:37;1.40;99.90
15231;DHT22;32569;51.762;8.564;2023-01-19T05:50:05;1.40;99.90
15231;DHT22;32569;51.762;8.564;2023-01-19T05:52:32;1.40;99.90
15231;DHT22;32569;51.762;8.564;2023-01-19T05:54:58;1.40;99.90
15231;DHT22;32569;51.762;8.564;2023-01-19T05:57:25;1.40;99.90
15231;DHT22;32569;51.762;8.564;2023-01-19T05:59:53;1.40;99.90
15231;DHT22;32569;51.762;8.564;2023-01-19T06:02:19;1.40;99.90
15231;DHT22;32569;51.762;8.564;2023-01-19T06:04:53;1.40;99.90
15231;DHT22;32569;51.762;8.564;2023-01-19T06:07:19;1.50;99.90
15231;DHT22;32569;51.762;8.564;2023-01-19T06:09:46;1.50;99.90
15231;DHT22;32569;51.762;8.564;2023-01-19T06:12:13;1.50;99.90
15231;DHT22;32569;51.762;8.564;2023-01-19T06:14:39;1.60;99.90
15231;DHT22;32569;51.762;8.564;2023-01-19T06:17:07;1.60;99.90
15231;DHT22;32569;51.762;8.564;2023-01-19T06:19:34;1.50;99.90
15231;DHT22;32569;51.762;8.564;2023-01-19T06:22:00;1.50;99.90
15231;DHT22;32569;51.762;8.564;2023-01-19T06:24:30;1.50;99.90
15231;DHT22;32569;51.762;8.564;2023-01-19T06:26:57;1.40;99.90
15231;DHT22;32569;51.762;8.564;2023-01-19T06:29:24;1.30;99.90
15231;DHT22;32569;51.762;8.564;2023-01-19T06:31:51;1.20;99.90
15231;DHT22;32569;51.762;8.564;2023-01-19T06:34:19;1.10;99.90
15231;DHT22;32569;51.762;8.564;2023-01-19T06:36:46;1.00;99.90
15231;DHT22;32569;51.762;8.564;2023-01-19T06:39:13;0.90;99.90
15231;DHT22;32569;51.762;8.564;2023-01-19T06:41:39;0.90;99.90
15231;DHT22;32569;51.762;8.564;2023-01-19T06:44:06;0.80;99.90
15231;DHT22;32569;51.762;8.564;2023-01-19T06:46:35;0.70;99.90
15231;DHT22;32569;51.762;8.564;2023-01-19T06:49:02;0.70;99.90
15231;DHT22;32569;51.762;8.564;2023-01-19T06:51:33;0.60;99.90
15231;DHT22;32569;51.762;8.564;2023-01-19T06:54:00;0.60;99.90
15231;DHT22;32569;51.762;8.564;2023-01-19T06:56:27;0.60;99.90
15231;DHT22;32569;51.762;8.564;2023-01-19T06:58:53;0.60;99.90
15231;DHT22;32569;51.762;8.564;2023-01-19T07:01:20;0.60;99.90
15231;DHT22;32569;51.762;8.564;2023-01-19T07:03:47;0.50;99.90
15231;DHT22;32569;51.762;8.564;2023-01-19T07:06:13;0.50;99.90
15231;DHT22;32569;51.762;8.564;2023-01-19T07:08:41;0.50;99.90
15231;DHT22;32569;51.762;8.564;2023-01-19T07:11:09;0.40;99.90
15231;DHT22;32569;51.762;8.564;2023-01-19T07:13:38;0.40;99.90
15231;DHT22;32569;51.762;8.564;2023-01-19T07:16:06;0.40;99.90
15231;DHT22;32569;51.762;8.564;2023-01-19T07:18:33;0.40;99.90
15231;DHT22;32569;51.762;8.564;2023-01-19T07:20:59;0.30;99.90
15231;DHT22;32569;51.762;8.564;2023-01-19T07:23:26;0.40;99.90
15231;DHT22;32569;51.762;8.564;2023-01-19T07:25:56;0.40;99.90
15231;DHT22;32569;51.762;8.564;2023-01-19T07:28:23;0.40;99.90
15231;DHT22;32569;51.762;8.564;2023-01-19T07:30:50;0.40;99.90
15231;DHT22;32569;51.762;8.564;2023-01-19T07:33:16;0.50;99.90
15231;DHT22;32569;51.762;8.564;2023-01-19T07:35:46;0.50;99.90
15231;DHT22;32569;51.762;8.564;2023-01-19T07:38:17;0.50;99.90
15231;DHT22;32569;51.762;8.564;2023-01-19T07:40:44;0.40;99.90
15231;DHT22;32569;51.762;8.564;2023-01-19T07:43:13;0.50;99.90
15231;DHT22;32569;51.762;8.564;2023-01-19T07:45:40;0.50;99.90
15231;DHT22;32569;51.762;8.564;2023-01-19T07:48:07;0.50;99.90
15231;DHT22;32569;51.762;8.564;2023-01-19T07:50:33;0.50;99.90
15231;DHT22;32569;51.762;8.564;2023-01-19T07:53:04;0.50;99.90
15231;DHT22;32569;51.762;8.564;2023-01-19T07:55:30;0.50;99.90
15231;DHT22;32569;51.762;8.564;2023-01-19T07:58:03;0.50;99.90
15231;DHT22;32569;51.762;8.564;2023-01-19T08:00:35;0.50;99.90
15231;DHT22;32569;51.762;8.564;2023-01-19T08:03:03;0.50;99.90
15231;DHT22;32569;51.762;8.564;2023-01-19T08:05:31;0.50;99.90
15231;DHT22;32569;51.762;8.564;2023-01-19T08:07:58;0.50;99.90
15231;DHT22;32569;51.762;8.564;2023-01-19T08:10:25;0.60;99.90
15231;DHT22;32569;51.762;8.564;2023-01-19T08:12:53;0.50;99.90
15231;DHT22;32569;51.762;8.564;2023-01-19T08:15:21;0.50;99.90
15231;DHT22;32569;51.762;8.564;2023-01-19T08:17:55;0.50;99.90
15231;DHT22;32569;51.762;8.564;2023-01-19T08:20:22;0.50;99.90
15231;DHT22;32569;51.762;8.564;2023-01-19T08:22:49;0.60;99.90
15231;DHT22;32569;51.762;8.564;2023-01-19T08:25:16;0.60;99.90
15231;DHT22;32569;51.762;8.564;2023-01-19T08:27:42;0.70;99.90
15231;DHT22;32569;51.762;8.564;2023-01-19T08:30:10;0.70;99.90
15231;DHT22;32569;51.762;8.564;2023-01-19T08:32:37;0.60;99.90
15231;DHT22;32569;51.762;8.564;2023-01-19T08:35:06;0.60;99.90
15231;DHT22;32569;51.762;8.564;2023-01-19T08:37:33;0.60;99.90
15231;DHT22;32569;51.762;8.564;2023-01-19T08:39:59;0.50;99.90
15231;DHT22;32569;51.762;8.564;2023-01-19T08:42:26;0.60;99.90
15231;DHT22;32569;51.762;8.564;2023-01-19T08:44:52;0.60;99.90
15231;DHT22;32569;51.762;8.564;2023-01-19T08:47:19;0.60;99.90
15231;DHT22;32569;51.762;8.564;2023-01-19T08:49:46;0.60;99.90
15231;DHT22;32569;51.762;8.564;2023-01-19T08:52:13;0.60;99.90
15231;DHT22;32569;51.762;8.564;2023-01-19T08:54:40;0.60;99.90
15231;DHT22;32569;51.762;8.564;2023-01-19T08:57:07;0.60;99.90
15231;DHT22;32569;51.762;8.564;2023-01-19T08:59:33;0.60;99.90
15231;DHT22;32569;51.762;8.564;2023-01-19T09:02:00;0.70;99.90
15231;DHT22;32569;51.762;8.564;2023-01-19T09:04:27;0.70;99.90
15231;DHT22;32569;51.762;8.564;2023-01-19T09:06:54;0.60;99.90
15231;DHT22;32569;51.762;8.564;2023-01-19T09:09:21;0.60;99.90
15231;DHT22;32569;51.762;8.564;2023-01-19T09:11:48;0.60;99.90
15231;DHT22;32569;51.762;8.564;2023-01-19T09:14:15;0.50;99.90
15231;DHT22;32569;51.762;8.564;2023-01-19T09:16:41;0.50;99.90
15231;DHT22;32569;51.762;8.564;2023-01-19T09:19:15;0.50;99.90
15231;DHT22;32569;51.762;8.564;2023-01-19T09:21:42;0.50;99.90
15231;DHT22;32569;51.762;8.564;2023-01-19T09:24:09;0.50;99.90
15231;DHT22;32569;51.762;8.564;2023-01-19T09:26:37;0.60;99.90
15231;DHT22;32569;51.762;8.564;2023-01-19T09:29:05;0.50;99.90
15231;DHT22;32569;51.762;8.564;2023-01-19T09:31:31;0.50;99.90
15231;DHT22;32569;51.762;8.564;2023-01-19T09:33:58;0.50;99.90
15231;DHT22;32569;51.762;8.564;2023-01-19T09:36:25;0.50;99.90
15231;DHT22;32569;51.762;8.564;2023-01-19T09:38:51;0.50;99.90
15231;DHT22;32569;51.762;8.564;2023-01-19T09:41:20;0.40;99.90
15231;DHT22;32569;51.762;8.564;2023-01-19T09:43:51;0.30;99.90
15231;DHT22;32569;51.762;8.564;2023-01-19T09:46:21;0.40;99.90
15231;DHT22;32569;51.762;8.564;2023-01-19T09:48:51;0.30;99.90
15231;DHT22;32569;51.762;8.564;2023-01-19T09:51:20;0.40;99.90
15231;DHT22;32569;51.762;8.564;2023-01-19T09:53:59;0.40;99.90
15231;DHT22;32569;51.762;8.564;2023-01-19T09:56:28;0.40;99.90
15231;DHT22;32569;51.762;8.564;2023-01-19T09:58:57;0.40;99.90
15231;DHT22;32569;51.762;8.564;2023-01-19T10:01:35;0.50;99.90
15231;DHT22;32569;51.762;8.564;2023-01-19T10:04:31;0.50;99.90
15231;DHT22;32569;51.762;8.564;2023-01-19T10:07:10;0.60;99.90
15231;DHT22;32569;51.762;8.564;2023-01-19T10:09:54;0.70;99.90
15231;DHT22;32569;51.762;8.564;2023-01-19T10:12:32;0.70;99.90
15231;DHT22;32569;51.762;8.564;2023-01-19T10:15:10;0.70;99.90
15231;DHT22;32569;51.762;8.564;2023-01-19T10:17:50;0.70;99.90
15231;DHT22;32569;51.762;8.564;2023-01-19T10:20:24;0.70;99.90
15231;DHT22;32569;51.762;8.564;2023-01-19T10:22:53;0.70;99.90
15231;DHT22;32569;51.762;8.564;2023-01-19T10:25:22;0.70;99.90
15231;DHT22;32569;51.762;8.564;2023-01-19T10:27:49;0.80;99.90
15231;DHT22;32569;51.762;8.564;2023-01-19T10:30:22;0.80;99.90
15231;DHT22;32569;51.762;8.564;2023-01-19T10:32:50;0.80;99.90
15231;DHT22;32569;51.762;8.564;2023-01-19T10:35:19;0.80;99.90
15231;DHT22;32569;51.762;8.564;2023-01-19T10:37:49;0.80;99.90
15231;DHT22;32569;51.762;8.564;2023-01-19T10:40:21;0.80;99.90
15231;DHT22;32569;51.762;8.564;2023-01-19T10:42:50;0.80;99.90
15231;DHT22;32569;51.762;8.564;2023-01-19T10:45:22;0.80;99.90
15231;DHT22;32569;51.762;8.564;2023-01-19T10:47:54;0.80;99.90
15231;DHT22;32569;51.762;8.564;2023-01-19T10:50:25;0.70;99.90
15231;DHT22;32569;51.762;8.564;2023-01-19T10:52:54;0.70;99.90
15231;DHT22;32569;51.762;8.564;2023-01-19T10:55:27;0.70;99.90
15231;DHT22;32569;51.762;8.564;2023-01-19T10:57:54;0.60;99.90
15231;DHT22;32569;51.762;8.564;2023-01-19T11:00:31;0.60;99.90
15231;DHT22;32569;51.762;8.564;2023-01-19T11:02:58;0.60;99.90
15231;DHT22;32569;51.762;8.564;2023-01-19T11:05:26;0.60;99.90
15231;DHT22;32569;51.762;8.564;2023-01-19T11:07:54;0.60;99.90
15231;DHT22;32569;51.762;8.564;2023-01-19T11:10:22;0.70;99.90
15231;DHT22;32569;51.762;8.564;2023-01-19T11:12:59;0.70;99.90
15231;DHT22;32569;51.762;8.564;2023-01-19T11:15:33;0.70;99.90
15231;DHT22;32569;51.762;8.564;2023-01-19T11:18:02;0.80;99.90
15231;DHT22;32569;51.762;8.564;2023-01-19T11:20:38;0.80;99.90
15231;DHT22;32569;51.762;8.564;2023-01-19T11:23:19;0.80;99.90
15231;DHT22;32569;51.762;8.564;2023-01-19T11:25:49;0.80;99.90
15231;DHT22;32569;51.762;8.564;2023-01-19T11:28:18;0.80;99.90
15231;DHT22;32569;51.762;8.564;2023-01-19T11:30:58;0.90;99.90
15231;DHT22;32569;51.762;8.564;2023-01-19T11:33:31;0.90;99.90
15231;DHT22;32569;51.762;8.564;2023-01-19T11:36:04;1.00;99.90
15231;DHT22;32569;51.762;8.564;2023-01-19T11:38:31;1.00;99.90
15231;DHT22;32569;51.762;8.564;2023-01-19T11:40:59;1.00;99.90
15231;DHT22;32569;51.762;8.564;2023-01-19T11:43:29;1.00;99.90
15231;DHT22;32569;51.762;8.564;2023-01-19T11:45:58;1.00;99.90
15231;DHT22;32569;51.762;8.564;2023-01-19T11:48:31;1.00;99.90
15231;DHT22;32569;51.762;8.564;2023-01-19T11:51:01;1.00;99.90
15231;DHT22;32569;51.762;8.564;2023-01-19T11:53:33;1.10;99.90
15231;DHT22;32569;51.762;8.564;2023-01-19T11:56:01;1.20;99.90
15231;DHT22;32569;51.762;8.564;2023-01-19T11:58:30;1.10;99.90
15231;DHT22;32569;51.762;8.564;2023-01-19T12:01:04;1.20;99.90
15231;DHT22;32569;51.762;8.564;2023-01-19T12:03:37;1.20;99.90
15231;DHT22;32569;51.762;8.564;2023-01-19T12:06:09;1.20;99.90
15231;DHT22;32569;51.762;8.564;2023-01-19T12:08:41;1.30;99.90
15231;DHT22;32569;51.762;8.564;2023-01-19T12:11:11;1.20;99.90
15231;DHT22;32569;51.762;8.564;2023-01-19T12:13:39;1.30;99.90
15231;DHT22;32569;51.762;8.564;2023-01-19T12:16:12;1.30;99.90
15231;DHT22;32569;51.762;8.564;2023-01-19T12:18:42;1.40;99.90
15231;DHT22;32569;51.762;8.564;2023-01-19T12:21:09;1.40;99.90
15231;DHT22;32569;51.762;8.564;2023-01-19T12:23:43;1.50;99.90
15231;DHT22;32569;51.762;8.564;2023-01-19T12:26:27;1.50;99.90
15231;DHT22;32569;51.762;8.564;2023-01-19T12:28:55;1.60;99.90
15231;DHT22;32569;51.762;8.564;2023-01-19T12:31:26;1.60;99.90
15231;DHT22;32569;51.762;8.564;2023-01-19T12:33:53;1.70;99.90
15231;DHT22;32569;51.762;8.564;2023-01-19T12:36:37;1.70;99.90
15231;DHT22;32569;51.762;8.564;2023-01-19T12:39:13;1.70;99.90
15231;DHT22;32569;51.762;8.564;2023-01-19T12:41:42;1.80;99.90
15231;DHT22;32569;51.762;8.564;2023-01-19T12:44:28;1.80;99.90
15231;DHT22;32569;51.762;8.564;2023-01-19T12:47:18;1.80;99.90
15231;DHT22;32569;51.762;8.564;2023-01-19T12:49:51;1.90;99.90
15231;DHT22;32569;51.762;8.564;2023-01-19T12:52:23;2.00;99.90
15231;DHT22;32569;51.762;8.564;2023-01-19T12:54:58;1.90;99.90
15231;DHT22;32569;51.762;8.564;2023-01-19T12:57:29;2.00;99.90
15231;DHT22;32569;51.762;8.564;2023-01-19T12:59:58;2.00;99.90
15231;DHT22;32569;51.762;8.564;2023-01-19T13:02:50;2.10;99.90
15231;DHT22;32569;51.762;8.564;2023-01-19T13:05:48;2.10;99.90
15231;DHT22;32569;51.762;8.564;2023-01-19T13:08:20;2.10;99.90
15231;DHT22;32569;51.762;8.564;2023-01-19T13:11:11;2.00;99.90
15231;DHT22;32569;51.762;8.564;2023-01-19T13:13:39;2.10;99.90
15231;DHT22;32569;51.762;8.564;2023-01-19T13:16:52;2.00;99.90
15231;DHT22;32569;51.762;8.564;2023-01-19T13:19:31;2.10;99.90
15231;DHT22;32569;51.762;8.564;2023-01-19T13:25:07;2.20;99.90
15231;DHT22;32569;51.762;8.564;2023-01-19T13:27:35;2.20;99.90
15231;DHT22;32569;51.762;8.564;2023-01-19T13:30:10;2.20;99.90
15231;DHT22;32569;51.762;8.564;2023-01-19T13:32:39;2.20;99.90
15231;DHT22;32569;51.762;8.564;2023-01-19T13:35:13;2.10;99.90
15231;DHT22;32569;51.762;8.564;2023-01-19T13:37:42;2.10;99.90
15231;DHT22;32569;51.762;8.564;2023-01-19T13:40:16;2.20;99.90
15231;DHT22;32569;51.762;8.564;2023-01-19T13:42:44;2.10;99.90
15231;DHT22;32569;51.762;8.564;2023-01-19T13:45:25;2.10;99.90
15231;DHT22;32569;51.762;8.564;2023-01-19T13:47:52;2.10;99.90
15231;DHT22;32569;51.762;8.564;2023-01-19T13:50:23;2.10;99.90
15231;DHT22;32569;51.762;8.564;2023-01-19T13:52:50;2.10;99.90
15231;DHT22;32569;51.762;8.564;2023-01-19T13:55:21;2.10;99.90
15231;DHT22;32569;51.762;8.564;2023-01-19T13:57:49;2.00;99.90
15231;DHT22;32569;51.762;8.564;2023-01-19T14:00:18;2.00;99.90
15231;DHT22;32569;51.762;8.564;2023-01-19T14:02:54;2.00;99.90
15231;DHT22;32569;51.762;8.564;2023-01-19T14:05:28;2.00;99.90
15231;DHT22;32569;51.762;8.564;2023-01-19T14:08:02;2.10;99.90
15231;DHT22;32569;51.762;8.564;2023-01-19T14:10:30;2.10;99.90
15231;DHT22;32569;51.762;8.564;2023-01-19T14:12:58;2.00;99.90
15231;DHT22;32569;51.762;8.564;2023-01-19T14:15:25;2.00;99.90
15231;DHT22;32569;51.762;8.564;2023-01-19T14:18:07;2.10;99.90
15231;DHT22;32569;51.762;8.564;2023-01-19T14:20:35;2.10;99.90
15231;DHT22;32569;51.762;8.564;2023-01-19T14:23:02;2.10;99.90
15231;DHT22;32569;51.762;8.564;2023-01-19T14:25:30;2.00;99.90
15231;DHT22;32569;51.762;8.564;2023-01-19T14:28:31;2.10;99.90
15231;DHT22;32569;51.762;8.564;2023-01-19T14:31:01;2.10;99.90
15231;DHT22;32569;51.762;8.564;2023-01-19T14:33:35;2.10;99.90
15231;DHT22;32569;51.762;8.564;2023-01-19T14:36:23;2.10;99.90
15231;DHT22;32569;51.762;8.564;2023-01-19T14:38:51;2.10;99.90
15231;DHT22;32569;51.762;8.564;2023-01-19T14:41:22;2.10;99.90
15231;DHT22;32569;51.762;8.564;2023-01-19T14:43:50;2.10;99.90
15231;DHT22;32569;51.762;8.564;2023-01-19T14:46:17;2.10;99.90
15231;DHT22;32569;51.762;8.564;2023-01-19T14:48:45;2.10;99.90
15231;DHT22;32569;51.762;8.564;2023-01-19T14:51:17;2.10;99.90
15231;DHT22;32569;51.762;8.564;2023-01-19T14:53:48;2.10;99.90
15231;DHT22;32569;51.762;8.564;2023-01-19T14:56:24;2.10;99.90
15231;DHT22;32569;51.762;8.564;2023-01-19T14:59:00;2.10;99.90
15231;DHT22;32569;51.762;8.564;2023-01-19T15:01:27;2.10;99.90
15231;DHT22;32569;51.762;8.564;2023-01-19T15:03:55;2.10;99.90
15231;DHT22;32569;51.762;8.564;2023-01-19T15:06:24;2.10;99.90
15231;DHT22;32569;51.762;8.564;2023-01-19T15:08:51;2.00;99.90
15231;DHT22;32569;51.762;8.564;2023-01-19T15:11:22;2.00;99.90
15231;DHT22;32569;51.762;8.564;2023-01-19T15:13:49;2.00;99.90
15231;DHT22;32569;51.762;8.564;2023-01-19T15:16:16;1.90;99.90
15231;DHT22;32569;51.762;8.564;2023-01-19T15:18:43;1.90;99.90
15231;DHT22;32569;51.762;8.564;2023-01-19T15:21:12;1.80;99.90
15231;DHT22;32569;51.762;8.564;2023-01-19T15:23:41;1.80;99.90
15231;DHT22;32569;51.762;8.564;2023-01-19T15:26:14;1.80;99.90
15231;DHT22;32569;51.762;8.564;2023-01-19T15:28:43;1.80;99.90
15231;DHT22;32569;51.762;8.564;2023-01-19T15:31:14;1.70;99.90
15231;DHT22;32569;51.762;8.564;2023-01-19T15:33:40;1.70;99.90
15231;DHT22;32569;51.762;8.564;2023-01-19T15:36:11;1.70;99.90
15231;DHT22;32569;51.762;8.564;2023-01-19T15:38:38;1.60;99.90
15231;DHT22;32569;51.762;8.564;2023-01-19T15:41:17;1.60;99.90
15231;DHT22;32569;51.762;8.564;2023-01-19T15:43:46;1.60;99.90
15231;DHT22;32569;51.762;8.564;2023-01-19T15:46:13;1.60;99.90
15231;DHT22;32569;51.762;8.564;2023-01-19T15:48:40;1.60;99.90
15231;DHT22;32569;51.762;8.564;2023-01-19T15:51:10;1.60;99.90
15231;DHT22;32569;51.762;8.564;2023-01-19T15:53:38;1.60;99.90
15231;DHT22;32569;51.762;8.564;2023-01-19T15:56:13;1.60;99.90
15231;DHT22;32569;51.762;8.564;2023-01-19T15:58:39;1.60;99.90
15231;DHT22;32569;51.762;8.564;2023-01-19T16:01:11;1.60;99.90
15231;DHT22;32569;51.762;8.564;2023-01-19T16:03:42;1.60;99.90
15231;DHT22;32569;51.762;8.564;2023-01-19T16:06:09;1.60;99.90